Latest Weather Observations for Victoria River Downs

IDD60801

Issued at 9:31 pm CST Saturday 1 August 2015 (issued every 30 minutes, with the page automatically refreshed every 10 minutes)

About weather observations | Map of weather stations | Latest weather observations for NT | Other Formats
Station Details ID: 014825 Name: VICTORIA RIVER DOWNS Lat: -16.40 Lon: 131.01 Height: 88.5 m
Data from the previous 72 hours. | See also: Recent months at Victoria River Downs
Date/Time
CST
Temp
°C
App
Temp
°C
Dew
Point
Rel
Hum
%
Delta-T
°C
Wind Press
QNH
hPa
Press
MSL
hPa
Rain
since 9 am
mm
Dir
 
Spd
km/h
Gust
km/h
Spd
kts
Gust
kts
01/09:30pm 19.6 18.5 6.7 43 6.5 WNW 2 7 1 4 1015.4 - 0.0
01/09:00pm 21.9 21.3 7.3 39 7.6 CALM 0 4 0 2 1015.2 1014.7 0.0
01/08:30pm 21.5 20.5 5.4 35 8.0 CALM 0 0 0 0 1014.9 - 0.0
01/08:00pm 22.5 21.5 5.4 33 8.6 CALM 0 0 0 0 1014.6 - 0.0
01/07:30pm 24.2 23.4 6.5 32 9.2 CALM 0 0 0 0 1014.1 - 0.0
01/07:23pm 24.7 24.2 7.8 34 9.0 CALM 0 0 0 0 1013.9 - 0.0
01/07:00pm 26.4 25.5 5.9 27 10.6 CALM 0 0 0 0 1013.7 - 0.0
01/06:30pm 29.3 27.5 5.4 22 12.5 E 4 9 2 5 1013.5 - 0.0
01/06:00pm 31.3 29.0 4.9 19 13.9 ENE 6 7 3 4 1013.4 1013.0 0.0
01/05:30pm 31.7 28.4 4.5 18 14.2 NE 11 15 6 8 1013.3 - 0.0
01/05:00pm 32.7 30.3 5.3 18 14.6 N 7 11 4 6 1013.3 - 0.0
01/04:30pm 32.0 28.9 5.5 19 14.1 SSE 11 17 6 9 1013.4 - 0.0
01/04:00pm 32.6 30.4 6.0 19 14.3 WSW 7 13 4 7 1013.4 - 0.0
01/03:30pm 31.8 28.4 6.1 20 13.8 NNE 13 24 7 13 1013.7 - 0.0
01/03:00pm 31.1 28.4 5.5 20 13.6 NNE 9 19 5 10 1014.1 1013.7 0.0
01/02:30pm 32.1 29.2 6.3 20 13.9 E 11 20 6 11 1014.5 - 0.0
01/02:00pm 31.4 28.0 5.8 20 13.7 E 13 24 7 13 1015.1 - 0.0
01/01:30pm 31.1 28.8 7.5 23 12.9 E 9 15 5 8 1015.6 - 0.0
01/01:00pm 30.6 28.4 7.7 24 12.5 ENE 9 17 5 9 1016.3 - 0.0
01/12:30pm 29.3 26.1 6.7 24 12.1 NNE 13 19 7 10 1016.8 - 0.0
01/12:00pm 28.6 25.5 7.2 26 11.5 NNE 13 20 7 11 1017.3 1017.0 0.0
01/11:30am 28.1 24.5 6.8 26 11.3 NNE 15 26 8 14 1017.7 - 0.0
01/11:00am 27.5 24.0 7.4 28 10.8 NE 15 26 8 14 1018.0 - 0.0
01/10:30am 25.8 22.5 6.4 29 10.1 NE 13 19 7 10 1018.4 - 0.0
01/10:00am 24.3 21.5 5.1 29 9.7 ENE 9 15 5 8 1018.4 - 0.0
01/09:30am 22.4 19.3 3.5 29 9.1 ENE 9 11 5 6 1018.3 - 0.0
01/09:27am 22.4 19.6 3.0 28 9.3 ENE 7 11 4 6 1018.2 - 0.0
01/09:00am 20.1 18.1 2.5 31 8.2 SSE 2 7 1 4 1018.1 1017.8 0.0
01/08:30am 17.7 16.4 4.3 41 6.4 CALM 0 0 0 0 1017.7 - 0.0
01/08:20am 16.4 15.2 4.4 45 5.7 CALM 0 0 0 0 1017.6 - 0.0
01/08:00am 14.4 13.1 4.1 50 4.7 CALM 0 0 0 0 1017.4 - 0.0
01/07:30am 11.4 9.8 2.7 55 3.8 CALM 0 0 0 0 1016.9 - 0.0
01/07:00am 11.5 10.0 2.8 55 3.8 CALM 0 0 0 0 1016.7 - 0.0
01/06:30am 11.5 9.9 2.5 54 3.9 CALM 0 0 0 0 1016.5 - 0.0
01/06:00am 11.6 9.9 2.1 52 4.1 CALM 0 0 0 0 1016.3 1016.0 0.0
01/05:30am 12.7 11.0 2.0 48 4.6 CALM 0 6 0 3 1015.7 - 0.0
01/05:00am 13.2 11.5 1.8 46 4.9 CALM 0 0 0 0 1015.5 - 0.0
01/04:30am 14.1 11.3 3.0 47 5.0 NNE 7 15 4 8 1015.5 - 0.0
01/04:00am 14.5 11.9 3.0 46 5.2 SW 6 9 3 5 1015.2 - 0.0
01/03:30am 14.6 11.6 2.2 43 5.5 WSW 7 9 4 5 1015.3 - 0.0
01/03:00am 14.9 11.9 2.1 42 5.7 W 7 9 4 5 1015.3 1014.8 0.0
01/02:30am 15.8 12.9 2.6 41 6.0 WNW 7 9 4 5 1015.3 - 0.0
01/02:00am 15.3 12.3 2.1 41 5.9 WSW 7 7 4 4 1015.4 - 0.0
01/01:30am 15.5 12.5 2.3 41 5.9 WNW 7 9 4 5 1015.4 - 0.0
01/01:00am 15.0 12.5 3.5 46 5.3 WNW 6 7 3 4 1015.4 - 0.0
01/12:30am 15.3 13.8 3.1 44 5.5 CALM 0 0 0 0 1015.4 - 0.0
01/12:00am 15.6 13.8 3.7 45 5.5 S 2 6 1 3 1015.5 1015.2 0.0
 
Date/Time
CST
Temp
°C
App
Temp
°C
Dew
Point
Rel
Hum
%
Delta-T
°C
Wind Press
QNH
hPa
Press
MSL
hPa
Rain
since 9 am
mm
Dir
 
Spd
km/h
Gust
km/h
Spd
kts
Gust
kts
31/11:30pm 16.3 13.9 4.4 45 5.6 S 6 7 3 4 1015.6 - 0.0
31/11:00pm 16.8 15.1 4.2 43 5.9 SSE 2 7 1 4 1015.6 - 0.0
31/10:30pm 17.0 14.5 4.0 42 6.1 S 6 7 3 4 1015.6 - 0.0
31/10:00pm 18.0 16.4 4.6 41 6.4 S 2 7 1 4 1015.4 - 0.0
31/09:30pm 18.7 17.6 5.2 41 6.6 CALM 0 0 0 0 1015.3 - 0.0
31/09:00pm 19.8 18.6 4.7 37 7.3 CALM 0 0 0 0 1015.1 1014.7 0.0
31/08:30pm 20.4 19.2 4.8 36 7.6 CALM 0 0 0 0 1014.9 - 0.0
31/08:00pm 21.8 20.6 4.8 33 8.4 CALM 0 0 0 0 1014.5 - 0.0
31/07:30pm 23.0 21.4 4.5 30 9.2 SSE 2 6 1 3 1014.1 - 0.0
31/07:00pm 25.8 23.5 4.9 26 10.6 ESE 6 7 3 4 1013.8 - 0.0
31/06:30pm 28.1 25.5 4.4 22 12.1 ESE 7 9 4 5 1013.6 - 0.0
31/06:00pm 29.9 27.0 4.5 20 13.1 E 9 15 5 8 1013.4 1013.1 0.0
31/05:30pm 30.7 27.6 3.7 18 13.8 E 9 19 5 10 1013.3 - 0.0
31/05:00pm 30.8 27.2 2.9 17 14.1 ENE 11 17 6 9 1013.2 - 0.0
31/04:30pm 31.0 28.3 3.9 18 14.0 E 7 15 4 8 1013.3 - 0.0
31/04:00pm 31.2 28.0 3.3 17 14.3 ESE 9 15 5 8 1013.4 - 0.0
31/03:30pm 30.9 26.9 3.0 17 14.2 E 13 20 7 11 1013.8 - 0.0
31/03:00pm 30.6 26.4 3.6 18 13.8 ESE 15 26 8 14 1014.0 1013.8 0.0
31/02:30pm 31.3 27.5 5.7 20 13.6 E 15 28 8 15 1014.6 - 0.0
31/02:00pm 30.3 27.2 5.6 21 13.1 ESE 11 17 6 9 1015.3 - 0.0
31/01:30pm 30.6 27.0 5.1 20 13.4 ENE 13 22 7 12 1016.0 - 0.0
31/01:00pm 29.7 25.4 5.1 21 12.8 E 17 26 9 14 1016.8 - 0.0
31/12:30pm 29.1 25.0 4.6 21 12.6 E 15 24 8 13 1017.3 - 0.0
31/12:00pm 28.1 24.3 3.7 21 12.3 ENE 13 17 7 9 1018.0 1017.8 0.0
31/11:30am 27.8 23.8 2.8 20 12.4 E 13 22 7 12 1018.4 - 0.0
31/11:00am 26.0 22.5 1.3 20 11.8 E 9 15 5 8 1018.8 - 0.0
31/10:30am 24.7 20.5 1.6 22 11.0 E 13 20 7 11 1019.1 - 0.0
31/10:00am 23.5 19.6 1.2 23 10.4 E 11 15 6 8 1019.4 - 0.0
31/09:30am 22.1 20.0 1.7 26 9.5 NNW 2 6 1 3 1019.5 - 0.0
31/09:13am 20.5 19.0 2.8 31 8.3 CALM 0 6 0 3 1019.4 - 0.0
31/09:00am 19.6 17.8 3.3 34 7.7 SW 2 9 1 5 1019.3 1019.1 0.0
31/08:30am 15.8 13.4 4.5 47 5.3 SW 6 7 3 4 1019.1 - 0.0
31/08:00am 13.3 11.0 5.7 60 3.6 SW 7 9 4 5 1018.8 - 0.0
31/07:30am 11.4 10.0 3.4 58 3.5 CALM 0 0 0 0 1018.4 - 0.0
31/07:00am 11.0 9.0 2.3 55 3.7 N 2 9 1 5 1018.2 - 0.0
31/06:30am 11.2 8.1 1.5 51 4.1 W 7 9 4 5 1017.5 - 0.0
31/06:00am 12.0 9.3 2.7 53 4.1 W 6 7 3 4 1017.1 1016.9 0.0
31/05:30am 11.3 8.3 1.8 52 4.0 W 7 9 4 5 1016.9 - 0.0
31/05:00am 12.0 9.3 2.5 52 4.1 WSW 6 7 3 4 1016.9 - 0.0
31/04:30am 12.1 9.2 1.7 49 4.5 SW 6 7 3 4 1016.9 - 0.0
31/04:00am 12.5 10.9 2.4 50 4.4 CALM 0 0 0 0 1016.9 - 0.0
31/03:30am 12.8 11.2 2.4 49 4.6 CALM 0 0 0 0 1016.8 - 0.0
31/03:00am 13.8 11.1 2.4 46 5.0 SE 6 9 3 5 1017.0 1016.9 0.0
31/02:30am 15.2 12.1 1.4 39 6.0 SSE 7 11 4 6 1017.2 - 0.0
31/02:00am 18.2 14.9 2.5 35 7.2 S 9 11 5 6 1017.3 - 0.0
31/01:30am 17.1 14.0 3.4 40 6.4 SSE 9 11 5 6 1017.7 - 0.0
31/01:00am 15.2 12.5 2.7 43 5.6 S 6 9 3 5 1017.9 - 0.0
31/12:30am 16.5 14.0 3.6 42 6.0 SSE 6 7 3 4 1017.9 - 0.0
31/12:00am 16.9 15.0 2.9 39 6.4 SSE 2 9 1 5 1018.0 1017.8 0.0
 
Date/Time
CST
Temp
°C
App
Temp
°C
Dew
Point
Rel
Hum
%
Delta-T
°C
Wind Press
QNH
hPa
Press
MSL
hPa
Rain
since 9 am
mm
Dir
 
Spd
km/h
Gust
km/h
Spd
kts
Gust
kts
30/11:30pm 17.0 14.4 3.0 39 6.4 S 6 9 3 5 1018.1 - 0.0
30/11:00pm 17.8 15.8 2.5 36 7.0 S 2 6 1 3 1018.2 - 0.0
30/10:30pm 19.5 17.1 1.9 31 8.1 SSE 4 9 2 5 1018.2 - 0.0
30/10:00pm 22.4 19.7 3.5 29 9.1 SE 7 9 4 5 1018.0 - 0.0
30/09:30pm 23.2 20.3 2.7 26 9.8 SSE 7 13 4 7 1017.8 - 0.0
30/09:00pm 24.6 - 3.3 25 10.4 - - - - - 1017.6 1017.4 0.0
30/08:30pm 25.0 - 3.0 24 10.7 - - - - - 1017.4 - 0.0
30/08:00pm 25.7 22.6 3.6 24 11.0 SSE 9 11 5 6 1016.9 - 0.0
30/07:30pm 26.3 22.8 3.5 23 11.3 SSE 11 17 6 9 1016.7 - 0.0
30/07:00pm 27.2 24.1 3.7 22 11.8 SE 9 13 5 7 1016.4 - 0.0
30/06:30pm 28.6 24.7 3.5 20 12.7 SSE 13 19 7 10 1016.2 - 0.0
30/06:00pm 29.7 25.5 3.6 19 13.3 SSE 15 20 8 11 1016.1 1015.9 0.0
30/05:30pm 30.2 26.4 4.0 19 13.5 SSE 13 19 7 10 1016.1 - 0.0
30/05:00pm 30.7 26.6 4.4 19 13.7 SE 15 24 8 13 1016.1 - 0.0
30/04:30pm 30.8 27.0 3.8 18 13.9 E 13 19 7 10 1016.1 - 0.0
30/04:00pm 31.0 27.3 4.7 19 13.7 E 13 33 7 18 1016.1 - 0.0
30/03:30pm 31.0 27.3 4.7 19 13.7 ESE 13 20 7 11 1016.4 - 0.0
30/03:00pm 30.8 26.7 4.5 19 13.7 ESE 15 26 8 14 1016.6 1016.5 0.0
30/02:30pm 31.3 27.7 4.9 19 13.9 E 13 19 7 10 1017.1 - 0.0
30/02:00pm 30.4 26.3 4.2 19 13.5 SE 15 22 8 12 1017.6 - 0.0
30/01:30pm 30.3 25.9 4.9 20 13.3 ENE 17 26 9 14 1018.3 - 0.0
30/01:00pm 29.9 26.3 5.2 21 12.9 ESE 13 26 7 14 1018.9 - 0.0
30/12:30pm 29.2 26.0 5.3 22 12.5 E 11 19 6 10 1019.7 - 0.0
30/12:00pm 28.7 25.6 5.5 23 12.1 ESE 11 17 6 9 1020.3 1020.1 0.0
30/11:30am 28.2 24.6 5.1 23 12.0 E 13 22 7 12 1020.7 - 0.0
30/11:00am 26.8 22.1 3.3 22 11.7 E 17 22 9 12 1021.1 - 0.0
30/10:30am 26.1 21.8 3.4 23 11.2 E 15 26 8 14 1021.2 - 0.0
30/10:00am 25.4 23.3 4.0 25 10.7 N 4 9 2 5 1021.1 - 0.0
30/09:30am 22.3 19.9 2.4 27 9.4 W 4 7 2 4 1021.1 - 0.0
30/09:28am 21.9 19.2 2.6 28 9.1 WSW 6 7 3 4 1021.1 - 0.0
30/09:00am 20.0 17.5 3.7 34 7.8 WSW 6 9 3 5 1020.9 1020.7 0.0
30/08:30am 17.2 14.6 4.2 42 6.1 WNW 7 9 4 5 1020.6 - 0.0
30/08:00am 13.6 11.1 4.5 54 4.2 W 7 7 4 4 1020.3 - 0.0
30/07:30am 12.1 9.6 4.6 60 3.4 W 7 9 4 5 1019.9 - 0.0
30/07:00am 11.6 8.9 3.9 59 3.5 W 7 9 4 5 1019.6 - 0.0
30/06:30am 11.8 9.1 3.6 57 3.7 WNW 7 7 4 4 1019.4 - 0.0
30/06:00am 12.0 9.2 3.3 55 3.8 SW 7 9 4 5 1019.2 1019.0 0.0
30/05:30am 12.9 11.5 5.3 60 3.6 SW 2 7 1 4 1019.0 - 0.0
30/05:00am 13.1 12.0 5.3 59 3.7 CALM 0 6 0 3 1018.8 - 0.0
30/04:30am 12.6 10.2 4.3 57 3.8 NNW 6 11 3 6 1018.6 - 0.0
30/04:00am 13.1 11.6 3.2 51 4.4 CALM 0 0 0 0 1018.2 - 0.0
30/03:30am 13.4 12.0 3.8 52 4.4 CALM 0 0 0 0 1018.3 - 0.0
30/03:00am 14.4 12.3 3.8 49 4.8 SW 4 6 2 3 1018.3 1018.1 0.0
30/02:30am 15.3 12.7 4.4 48 5.1 W 7 9 4 5 1018.4 - 0.0
30/02:00am 15.2 12.8 4.3 48 5.1 WNW 6 7 3 4 1018.5 - 0.0
30/01:30am 16.5 13.7 3.2 41 6.1 WNW 7 9 4 5 1018.6 - 0.0
30/01:00am 20.7 18.4 5.5 37 7.6 SSE 7 9 4 5 1018.7 - 0.0
30/12:30am 20.5 17.9 6.1 39 7.2 SE 9 11 5 6 1018.8 - 0.0
30/12:00am 20.4 18.2 6.0 39 7.2 SE 7 11 4 6 1019.0 1018.8 0.0
 
Date/Time
CST
Temp
°C
App
Temp
°C
Dew
Point
Rel
Hum
%
Delta-T
°C
Wind Press
QNH
hPa
Press
MSL
hPa
Rain
since 9 am
mm
Dir
 
Spd
km/h
Gust
km/h
Spd
kts
Gust
kts
29/11:30pm 20.6 17.9 5.8 38 7.4 SE 9 11 5 6 1019.1 - 0.0
29/11:00pm 21.3 18.7 6.0 37 7.7 SE 9 15 5 8 1019.3 - 0.0
29/10:30pm 18.3 15.8 4.8 41 6.5 SSE 7 9 4 5 1019.3 - 0.0
29/10:00pm 18.2 15.4 3.3 37 7.0 S 7 9 4 5 1019.1 - 0.0

Other Formats:

Comma delimited format used in spreadsheet applications
http://www.bom.gov.au/fwo/IDD60801/IDD60801.94232.axf

JavaScript Object Notation format (JSON) in row-major order
http://www.bom.gov.au/fwo/IDD60801/IDD60801.94232.json